Time;durP1;ratioP1;P1;durP2;ratioP2;P2;SDS_P1;SDS_P2;PMS_P1;PMS_P2;Temp;Humidity;BMP_temperature;BMP_pressure;BME280_temperature;BME280_humidity;BME280_pressure;Samples;Min_cycle;Max_cycle;Signal;HPM_P1;HPM_P2
2022/05/20 06:21:51;;;;;;;;;4.00;3.00;;;;;19.81;100.00;100508.06;6362524;22;46477;-91
2022/05/20 06:24:17;;;;;;;;;3.67;3.67;;;;;19.75;100.00;100492.06;6361179;22;47149;-88
2022/05/20 06:26:43;;;;;;;;;6.00;4.67;;;;;19.71;100.00;100456.56;6361395;22;45398;-90
2022/05/20 06:29:10;;;;;;;;;5.67;4.33;;;;;19.67;100.00;100409.50;6362263;22;45308;-90
2022/05/20 06:31:35;;;;;;;;;6.00;3.33;;;;;19.67;100.00;100392.63;6365871;22;45312;-90
2022/05/20 06:34:01;;;;;;;;;3.67;3.00;;;;;19.62;100.00;100397.97;6368301;22;47218;-90
2022/05/20 06:41:56;;;;;;;;;6.00;5.00;;;;;19.52;100.00;100460.94;6362667;22;45486;-89
2022/05/20 06:44:24;;;;;;;;;5.33;5.00;;;;;19.49;100.00;100407.69;6363557;22;45275;-89
2022/05/20 06:46:49;;;;;;;;;5.67;5.67;;;;;19.46;100.00;100392.59;6362214;22;45246;-90
2022/05/20 06:49:14;;;;;;;;;7.33;4.67;;;;;19.46;100.00;100413.00;6361227;22;45254;-89
2022/05/20 06:51:40;;;;;;;;;4.33;4.33;;;;;19.48;100.00;100369.53;6361037;22;50373;-89
2022/05/20 06:54:11;;;;;;;;;5.00;4.33;;;;;19.50;100.00;100311.88;6363779;22;45660;-89
2022/05/20 06:56:38;;;;;;;;;7.00;6.00;;;;;19.52;100.00;100251.56;6356456;22;45580;-89
2022/05/20 06:59:04;;;;;;;;;5.67;4.67;;;;;19.52;100.00;100112.25;6361588;22;45532;-91
2022/05/20 07:01:30;;;;;;;;;6.00;6.00;;;;;19.46;100.00;100091.88;6362624;22;45319;-91
2022/05/20 07:03:56;;;;;;;;;9.67;6.00;;;;;19.49;100.00;100170.81;6360052;22;47433;-90
2022/05/20 07:06:22;;;;;;;;;8.33;5.33;;;;;19.50;100.00;100177.94;6359803;22;45276;-91
2022/05/20 07:08:50;;;;;;;;;6.33;5.00;;;;;19.52;100.00;100157.50;6364172;22;45334;-91
2022/05/20 07:11:18;;;;;;;;;5.67;5.00;;;;;19.56;100.00;100158.41;6361782;22;45326;-90
2022/05/20 07:13:45;;;;;;;;;6.33;6.33;;;;;19.56;100.00;100147.75;6362701;22;47068;-91
2022/05/20 07:16:14;;;;;;;;;9.33;7.33;;;;;19.59;100.00;100156.59;6364151;22;45850;-92
2022/05/20 07:18:40;;;;;;;;;7.33;5.33;;;;;19.68;100.00;100173.47;6342058;22;45389;-91
2022/05/20 07:21:05;;;;;;;;;7.33;5.67;;;;;19.73;100.00;100158.38;6368170;22;45197;-91
2022/05/20 07:23:32;;;;;;;;;5.33;5.33;;;;;19.82;100.00;100171.66;6312171;22;1187108;-91
2022/05/20 07:25:57;;;;;;;;;8.67;7.00;;;;;19.96;100.00;100173.38;6363507;22;45359;-88
2022/05/20 07:28:24;;;;;;;;;10.00;8.00;;;;;20.08;100.00;100184.00;6350658;22;45604;-87
2022/05/20 07:30:50;;;;;;;;;5.00;5.00;;;;;20.14;100.00;100201.78;6362616;22;45551;-88
2022/05/20 07:33:15;;;;;;;;;8.00;6.33;;;;;20.17;100.00;100220.44;6359328;22;46994;-88
2022/05/20 07:35:41;;;;;;;;;6.00;6.00;;;;;20.22;100.00;100225.75;6360227;22;45443;-87
2022/05/20 07:38:07;;;;;;;;;7.33;7.33;;;;;20.23;100.00;100214.19;6362630;22;45394;-87
2022/05/20 07:40:32;;;;;;;;;6.00;6.00;;;;;20.28;100.00;100203.53;6360933;22;45315;-87
2022/05/20 07:42:58;;;;;;;;;8.67;6.67;;;;;20.32;100.00;100215.94;6362710;22;47104;-87
2022/05/20 07:45:24;;;;;;;;;9.67;9.00;;;;;20.40;100.00;100247.88;6366121;22;45413;-87
2022/05/20 07:47:50;;;;;;;;;8.00;7.33;;;;;20.42;100.00;100268.31;6361991;22;45396;-87
2022/05/20 07:50:16;;;;;;;;;11.00;9.00;;;;;20.40;100.00;100290.53;6361603;22;45659;-87
2022/05/20 07:55:32;;;;;;;;;8.67;7.67;;;;;20.27;100.00;100314.56;6365886;22;45430;-87
2022/05/20 07:57:59;;;;;;;;;12.00;11.00;;;;;20.26;100.00;100301.22;6365615;22;45476;-87
2022/05/20 08:00:25;;;;;;;;;11.00;11.00;;;;;20.24;100.00;100231.06;6361460;22;45344;-87
2022/05/20 08:02:56;;;;;;;;;11.00;10.00;;;;;20.26;100.00;100216.84;6372090;22;46906;-88
2022/05/20 08:05:22;;;;;;;;;12.00;11.00;;;;;20.34;100.00;100213.25;6391034;22;44711;-88
2022/05/20 08:07:49;;;;;;;;;13.00;13.00;;;;;20.32;100.00;100206.16;6388491;22;45347;-88
2022/05/20 08:10:18;;;;;;;;;10.67;10.33;;;;;20.31;100.00;100204.38;6370683;22;45234;-88
2022/05/20 08:12:44;;;;;;;;;12.00;10.67;;;;;20.39;100.00;100183.03;6368324;22;46188;-87
2022/05/20 08:15:10;;;;;;;;;11.67;7.33;;;;;20.40;100.00;100181.25;6368565;22;45327;-89
2022/05/20 08:17:39;;;;;;;;;11.67;11.00;;;;;20.37;100.00;100166.16;6365867;22;45329;-88
2022/05/20 08:20:10;;;;;;;;;13.33;11.33;;;;;20.38;100.00;100199.94;6372293;22;45406;-86
2022/05/20 08:22:38;;;;;;;;;10.67;9.33;;;;;20.30;100.00;100194.63;6362134;22;46364;-86
2022/05/20 08:25:04;;;;;;;;;9.67;9.00;;;;;20.28;100.00;100175.06;6365063;22;45615;-87
2022/05/20 08:27:31;;;;;;;;;14.33;11.00;;;;;20.25;100.00;100156.47;6366066;22;45296;-88
2022/05/20 08:29:57;;;;;;;;;11.67;11.33;;;;;20.21;100.00;100155.56;6363845;22;45261;-88
2022/05/20 08:32:23;;;;;;;;;12.00;9.00;;;;;20.18;100.00;100162.69;6381495;22;45325;-87
2022/05/20 08:34:51;;;;;;;;;11.67;8.33;;;;;20.13;100.00;100161.81;6385598;22;44711;-87
2022/05/20 08:37:18;;;;;;;;;13.33;10.00;;;;;20.15;100.00;100208.88;6389806;22;45227;-87
2022/05/20 08:39:48;;;;;;;;;10.00;8.00;;;;;20.04;100.00;100294.13;6362960;22;44835;-86
2022/05/20 08:42:17;;;;;;;;;9.67;9.33;;;;;20.02;100.00;100343.88;6385408;22;45735;-87
2022/05/20 08:44:44;;;;;;;;;12.33;10.00;;;;;19.96;100.00;100350.06;6383612;22;45299;-86
2022/05/20 08:47:27;;;;;;;;;12.00;8.67;;;;;19.87;100.00;100332.31;6385191;22;45573;-89
2022/05/20 08:49:58;;;;;;;;;16.33;14.33;;;;;19.85;100.00;100221.34;6392013;22;45408;-89
2022/05/20 08:52:25;;;;;;;;;22.00;17.00;;;;;19.74;100.00;100283.47;6391481;22;47149;-89
2022/05/20 08:54:51;;;;;;;;;19.33;16.67;;;;;19.74;100.00;100157.50;6390678;22;44783;-88
2022/05/20 08:57:26;;;;;;;;;20.33;17.33;;;;;19.74;100.00;100098.91;6377880;22;45700;-87
2022/05/20 08:59:52;;;;;;;;;17.00;16.00;;;;;19.84;100.00;100129.91;6377790;22;45347;-89
2022/05/20 09:02:20;;;;;;;;;17.33;14.67;;;;;19.93;100.00;100121.03;6374629;22;48246;-88
2022/05/20 09:04:46;;;;;;;;;15.00;14.33;;;;;19.91;100.00;100090.84;6376774;22;44885;-90
2022/05/20 09:07:15;;;;;;;;;10.67;10.67;;;;;20.09;100.00;100116.53;6376020;22;45313;-89
2022/05/20 09:09:52;;;;;;;;;12.33;11.33;;;;;20.09;100.00;100115.63;6403230;22;45489;-89
2022/05/20 09:12:27;;;;;;;;;17.33;14.33;;;;;20.14;100.00;100108.53;6374437;22;46947;-88
2022/05/20 09:17:47;;;;;;;;;20.00;16.33;;;;;20.12;100.00;100106.78;6376698;22;45439;-89
2022/05/20 09:20:17;;;;;;;;;13.00;11.00;;;;;20.16;100.00;100103.19;6345499;22;45366;-89
2022/05/20 09:22:55;;;;;;;;;13.33;11.33;;;;;20.09;100.00;100076.56;6364390;22;48046;-88
2022/05/20 09:25:26;;;;;;;;;14.00;13.33;;;;;20.21;100.00;100058.75;6382386;22;45272;-89
2022/05/20 09:27:56;;;;;;;;;15.67;13.00;;;;;20.20;100.00;100028.56;6385207;22;45262;-89
2022/05/20 09:30:23;;;;;;;;;17.33;15.00;;;;;20.23;100.00;100027.66;6371158;22;45551;-89
2022/05/20 09:33:01;;;;;;;;;14.67;12.67;;;;;20.22;100.00;100097.84;6373070;22;45443;-89
2022/05/20 09:35:33;;;;;;;;;12.67;12.67;;;;;20.22;100.00;100207.09;6367257;22;45372;-88
2022/05/20 09:37:59;;;;;;;;;14.67;12.67;;;;;20.10;100.00;100263.94;6365691;22;45243;-89
2022/05/20 09:40:34;;;;;;;;;11.33;11.00;;;;;20.01;100.00;100168.03;6365818;22;45531;-89
2022/05/20 10:51:23;;;;;;;;;25.67;23.33;;;;;27.39;100.00;99783.78;6368555;22;45621;-90
2022/05/20 10:53:54;;;;;;;;;26.25;25.75;;;;;29.22;100.00;99796.53;6387575;22;45279;-89
2022/05/20 10:56:47;;;;;;;;;19.33;19.00;;;;;31.53;100.00;99799.97;6387031;22;45224;-87
2022/05/20 10:59:16;;;;;;;;;26.00;25.00;;;;;34.25;100.00;99758.47;6385219;22;46158;-89
2022/05/20 11:04:26;;;;;;;;;21.67;18.67;;;;;34.81;100.00;99858.03;6396708;22;45192;-90
2022/05/20 11:07:19;;;;;;;;;18.00;17.67;;;;;33.83;100.00;99896.44;6394705;22;45331;-89
2022/05/20 11:10:03;;;;;;;;;16.67;16.00;;;;;32.58;100.00;99966.66;6393631;22;46861;-89
2022/05/20 11:13:02;;;;;;;;;16.00;13.33;;;;;31.36;100.00;99998.81;6383432;22;45319;-87
2022/05/20 11:15:46;;;;;;;;;17.67;16.00;;;;;30.37;100.00;99982.16;6373666;22;45417;-88
2022/05/20 11:18:23;;;;;;;;;17.00;17.00;;;;;29.54;100.00;99998.63;6373789;22;45362;-87
2022/05/20 11:21:14;;;;;;;;;15.00;13.00;;;;;28.92;100.00;99977.94;6378071;22;47411;-89
2022/05/20 11:24:05;;;;;;;;;15.33;14.00;;;;;28.50;100.00;99988.72;6411164;22;45572;-89
2022/05/20 11:26:58;;;;;;;;;19.33;16.33;;;;;28.27;100.00;99976.19;6384252;22;45368;-89
2022/05/20 11:29:45;;;;;;;;;19.00;16.00;;;;;28.25;100.00;99962.75;6377638;22;45301;-89
2022/05/20 11:32:13;;;;;;;;;15.33;15.00;;;;;28.21;100.00;99940.44;6371072;22;48236;-88
2022/05/20 11:35:12;;;;;;;;;12.67;12.67;;;;;28.13;100.00;99964.16;6377341;22;44785;-88
2022/05/20 11:37:44;;;;;;;;;16.33;14.00;;;;;28.21;100.00;99962.00;6378431;22;45249;-89
2022/05/20 11:40:10;;;;;;;;;17.00;15.33;;;;;28.34;100.00;99965.06;6413446;22;45206;-89
2022/05/20 11:42:39;;;;;;;;;14.67;13.00;;;;;28.49;100.00;99967.22;6385065;22;47565;-89
2022/05/20 11:45:33;;;;;;;;;19.00;15.00;;;;;28.39;100.00;99964.88;6419478;22;45220;-88
2022/05/20 11:48:16;;;;;;;;;16.33;14.33;;;;;28.19;100.00;99977.34;6393408;22;44743;-88
2022/05/20 11:51:01;;;;;;;;;22.00;16.00;;;;;28.23;100.00;99994.31;6425854;22;44690;-89
2022/05/20 11:53:55;;;;;;;;;14.33;14.33;;;;;28.42;100.00;99969.28;6396559;22;46036;-91
2022/05/20 11:56:33;;;;;;;;;18.00;15.33;;;;;28.72;100.00;99911.34;6384536;22;45061;-89
2022/05/20 11:59:06;;;;;;;;;12.33;12.33;;;;;28.87;100.00;99897.16;6388460;22;45248;-92
2022/05/20 12:01:35;;;;;;;;;13.33;11.67;;;;;28.95;100.00;99910.31;6375496;22;45674;-89
2022/05/20 12:04:07;;;;;;;;;16.33;12.67;;;;;28.83;100.00;99916.28;6398226;22;45494;-90
2022/05/20 12:07:23;;;;;;;;;14.33;12.33;;;;;28.74;100.00;99920.25;6345282;22;45429;-89
2022/05/20 12:09:55;;;;;;;;;16.00;14.00;;;;;28.84;100.00;99937.78;6342548;22;45232;-89
2022/05/20 12:12:49;;;;;;;;;16.33;16.00;;;;;28.58;100.00;99944.34;6372825;22;45312;-89
2022/05/20 12:15:14;;;;;;;;;14.33;12.33;;;;;28.27;100.00;99941.97;6401477;22;47343;-90
2022/05/20 12:17:52;;;;;;;;;12.00;11.67;;;;;27.98;100.00;99977.31;6405497;22;45350;-89
2022/05/20 12:25:55;;;;;;;;;9.33;8.67;;;;;27.11;100.00;99989.50;6415012;22;45182;-90
2022/05/20 12:28:20;;;;;;;;;13.67;11.00;;;;;26.80;100.00;99999.56;6418837;22;45385;-89
2022/05/20 12:31:11;;;;;;;;;10.33;8.67;;;;;26.46;100.00;99988.13;6414946;22;45326;-90
2022/05/20 12:34:05;;;;;;;;;8.67;8.67;;;;;26.32;100.00;99992.13;6416628;22;45114;-89
2022/05/20 12:36:42;;;;;;;;;11.00;10.67;;;;;26.54;100.00;99998.66;6389535;22;47520;-89
2022/05/20 12:39:07;;;;;;;;;8.00;8.00;;;;;27.23;100.00;99993.59;6414286;22;45354;-88
2022/05/20 12:41:57;;;;;;;;;12.33;10.00;;;;;27.63;100.00;100017.28;6417638;22;44888;-90
2022/05/20 12:44:22;;;;;;;;;8.33;8.00;;;;;27.58;100.00;100025.53;6413427;22;45305;-90
2022/05/20 12:47:04;;;;;;;;;8.67;7.33;;;;;27.36;100.00;100015.56;6378347;22;46025;-90
2022/05/20 12:49:37;;;;;;;;;10.00;8.00;;;;;27.11;100.00;100038.00;6412860;22;45012;-90
2022/05/20 12:52:31;;;;;;;;;7.33;7.33;;;;;26.80;100.00;100033.69;6368700;22;45259;-91
2022/05/20 12:55:00;;;;;;;;;7.67;7.67;;;;;26.41;100.00;100044.75;6397910;22;45217;-93
2022/05/20 12:57:29;;;;;;;;;8.67;8.33;;;;;26.11;100.00;100067.19;6399294;22;45218;-92
2022/05/20 13:00:26;;;;;;;;;8.33;5.67;;;;;25.78;100.00;100078.03;6399455;22;45331;-93
2022/05/20 13:03:01;;;;;;;;;5.33;5.33;;;;;25.51;100.00;100096.69;6302683;22;45362;-91
2022/05/20 13:05:36;;;;;;;;;4.33;3.33;;;;;25.23;100.00;100100.97;6356368;22;44761;-92
2022/05/20 13:08:12;;;;;;;;;5.33;5.00;;;;;25.19;100.00;100120.78;6392810;22;45660;-92
2022/05/20 13:10:39;;;;;;;;;5.00;5.00;;;;;25.20;100.00;100123.41;6369041;22;45510;-91
2022/05/20 13:13:10;;;;;;;;;3.67;3.67;;;;;25.24;100.00;100124.22;6358541;22;46622;-92
2022/05/20 13:15:50;;;;;;;;;7.00;5.00;;;;;25.02;100.00;100122.09;6362611;22;44697;-90
2022/05/20 13:18:22;;;;;;;;;5.33;5.00;;;;;24.75;100.00;100127.19;6360508;22;46270;-92
2022/05/20 13:20:53;;;;;;;;;4.00;4.00;;;;;24.43;100.00;100144.00;6383405;22;45328;-92
2022/05/20 13:23:21;;;;;;;;;4.00;4.00;;;;;24.21;100.00;100152.50;6387084;22;44700;-90
2022/05/20 13:25:49;;;;;;;;;4.00;3.00;;;;;23.93;100.00;100152.19;6390121;22;45375;-90
2022/05/20 13:28:30;;;;;;;;;6.00;5.33;;;;;23.82;100.00;100166.66;6380613;22;47048;-92
2022/05/20 13:31:07;;;;;;;;;5.67;5.33;;;;;23.91;100.00;100183.47;6350026;22;45638;-92
2022/05/20 13:33:35;;;;;;;;;7.33;6.00;;;;;24.06;100.00;100195.69;6381170;22;45839;-94
2022/05/20 13:36:03;;;;;;;;;5.00;5.00;;;;;24.12;100.00;100192.91;6357020;22;45432;-91
2022/05/20 13:38:32;;;;;;;;;5.67;5.00;;;;;24.22;100.00;100204.31;6375911;22;46163;-91
2022/05/20 13:40:57;;;;;;;;;5.67;5.67;;;;;24.50;100.00;100205.56;6382600;22;45370;-90
2022/05/20 13:43:30;;;;;;;;;5.00;5.00;;;;;24.60;100.00;100219.66;6381479;22;44708;-94
2022/05/20 13:49:13;;;;;;;;;6.67;6.67;;;;;24.47;100.00;100225.28;6299972;22;45562;-95
2022/05/20 13:51:49;;;;;;;;;7.33;7.33;;;;;24.46;100.00;100244.09;6326770;22;44740;-91
2022/05/20 13:54:44;;;;;;;;;8.00;8.00;;;;;24.48;100.00;100267.25;6324786;22;45277;-92
2022/05/20 13:57:17;;;;;;;;;5.33;5.33;;;;;24.71;100.00;100248.94;6326924;22;45257;-89
2022/05/20 13:59:43;;;;;;;;;6.50;5.00;;;;;24.80;100.00;100261.25;6331640;22;46790;-90
2022/05/20 14:07:39;;;;;;;;;2.67;2.67;;;;;24.83;100.00;100317.53;6416182;22;45556;-94
2022/05/20 14:10:22;;;;;;;;;5.67;5.67;;;;;24.61;100.00;100326.91;6375418;22;47480;-94
2022/05/20 14:13:09;;;;;;;;;7.67;6.33;;;;;24.35;100.00;100317.63;6385128;22;45339;-92
2022/05/20 14:23:21;;;;;;;;;10.67;10.67;;;;;23.49;100.00;100349.38;6381345;22;44969;-89
2022/05/20 14:41:23;;;;;;;;;20.00;19.00;;;;;22.50;100.00;100397.81;6391761;22;45071;-89
2022/05/20 14:43:56;;;;;;;;;17.00;17.00;;;;;22.31;100.00;100385.53;6391364;22;44763;-90
2022/05/20 14:47:15;;;;;;;;;20.67;19.00;;;;;22.32;100.00;100408.69;6364125;22;44600;-90
2022/05/20 14:49:59;;;;;;;;;16.00;16.00;;;;;22.21;100.00;100434.63;6392744;22;44783;-92
2022/05/20 14:55:07;;;;;;;;;21.00;20.00;;;;;21.85;100.00;100429.53;6370976;22;46358;-94
2022/05/20 14:57:42;;;;;;;;;23.33;21.67;;;;;21.83;100.00;100452.66;6418838;22;44621;-93
2022/05/20 15:00:34;;;;;;;;;;;;;;;;;;;;;
2022/05/20 15:03:01;;;;;;;;;19.67;17.00;;;;;21.63;100.00;100446.56;6414902;22;74486;-89
2022/05/20 15:05:29;;;;;;;;;23.33;18.33;;;;;21.58;100.00;100450.16;6413509;22;44894;-90
2022/05/20 15:08:01;;;;;;;;;19.67;16.33;;;;;21.48;100.00;100462.66;6415911;22;44883;-92
2022/05/20 15:10:31;;;;;;;;;19.33;15.00;;;;;21.43;100.00;100463.59;6416129;22;44860;-89
2022/05/20 15:12:56;;;;;;;;;17.67;13.67;;;;;21.47;100.00;100485.78;6389388;22;46384;-90
2022/05/20 15:15:22;;;;;;;;;12.00;12.00;;;;;21.35;100.00;100473.41;6411895;22;44814;-90
2022/05/20 15:18:07;;;;;;;;;15.00;13.33;;;;;21.39;100.00;100491.16;6411715;22;45385;-92
2022/05/20 15:20:38;;;;;;;;;14.33;12.33;;;;;21.31;100.00;100493.88;6407848;22;45294;-91
2022/05/20 15:23:08;;;;;;;;;13.67;12.33;;;;;21.25;100.00;100491.22;6400704;22;47376;-86
2022/05/20 15:25:33;;;;;;;;;14.33;13.00;;;;;21.23;100.00;100500.13;6404547;22;45913;-89
2022/05/20 15:27:59;;;;;;;;;18.33;13.67;;;;;21.24;100.00;100512.56;6374731;22;45351;-88
2022/05/20 15:30:25;;;;;;;;;13.00;11.00;;;;;21.30;100.00;100515.22;6407347;22;45397;-89
2022/05/20 15:35:34;;;;;;;;;14.33;12.00;;;;;21.30;100.00;100513.47;6428626;22;45230;-92
2022/05/20 15:38:01;;;;;;;;;9.00;7.67;;;;;21.39;100.00;100530.34;6454316;22;44713;-93
2022/05/20 15:40:41;;;;;;;;;;;;;;;;;;;;;
2022/05/20 15:45:43;;;;;;;;;9.00;6.33;;;;;21.60;100.00;100539.16;6387952;22;44897;-92
2022/05/20 15:48:08;;;;;;;;;11.33;10.67;;;;;21.65;100.00;100532.00;6381445;22;45295;-90
2022/05/20 15:50:34;;;;;;;;;12.33;11.33;;;;;21.83;100.00;100554.19;6371242;22;45306;-89
2022/05/20 15:53:05;;;;;;;;;10.67;7.00;;;;;21.88;100.00;100572.00;6342884;22;46965;-90
2022/05/20 15:55:43;;;;;;;;;9.33;6.00;;;;;21.78;100.00;100564.88;6377591;22;45272;-92
2022/05/20 15:58:14;;;;;;;;;9.00;8.00;;;;;21.55;100.00;100569.44;6349696;22;45300;-91
2022/05/20 16:00:44;;;;;;;;;9.67;9.33;;;;;21.46;100.00;100581.94;6324910;22;45383;-88
2022/05/20 16:03:09;;;;;;;;;7.00;6.67;;;;;21.35;100.00;100577.50;6323148;22;46840;-89
2022/05/20 16:05:37;;;;;;;;;8.33;8.33;;;;;21.36;100.00;100581.97;6346378;22;45287;-87
2022/05/20 16:08:12;;;;;;;;;8.00;7.33;;;;;21.41;100.00;100604.19;6375398;22;45288;-89
2022/05/20 16:10:39;;;;;;;;;11.00;7.33;;;;;21.40;100.00;100607.75;6321562;22;45356;-92
2022/05/20 16:13:07;;;;;;;;;7.33;7.33;;;;;21.40;100.00;100612.19;6339635;22;48260;-88
2022/05/20 16:15:35;;;;;;;;;6.33;6.33;;;;;21.43;100.00;100628.22;6346096;22;45723;-89
2022/05/20 16:18:01;;;;;;;;;7.00;7.00;;;;;21.35;100.00;100616.66;6357238;22;44704;-89
2022/05/20 16:20:30;;;;;;;;;8.00;6.00;;;;;21.16;100.00;100612.22;6335136;22;45230;-90
2022/05/20 16:22:57;;;;;;;;;5.67;5.67;;;;;21.08;100.00;100619.38;6351791;22;47626;-92
2022/05/20 16:25:27;;;;;;;;;8.67;6.00;;;;;20.98;100.00;100624.66;6392192;22;45386;-92
2022/05/20 16:27:56;;;;;;;;;7.67;6.33;;;;;20.82;100.00;100620.22;6335999;22;44791;-91
2022/05/20 16:30:37;;;;;;;;;;;;;;;;;;;;;
2022/05/20 16:33:46;;;;;;;;;3.00;2.00;;;;;20.56;100.00;100623.75;6390938;22;74564;-93
2022/05/20 16:36:16;;;;;;;;;12.33;10.33;;;;;20.40;100.00;100624.59;6393206;22;44789;-93
2022/05/20 16:39:03;;;;;;;;;14.33;11.00;;;;;20.34;100.00;100642.34;6363580;22;44734;-93
2022/05/20 16:41:32;;;;;;;;;5.00;4.33;;;;;20.23;100.00;100645.84;6338584;22;45336;-91
2022/05/20 16:44:11;;;;;;;;;4.67;4.33;;;;;20.23;100.00;100639.66;6311257;22;47129;-90
2022/05/20 16:46:37;;;;;;;;;3.33;3.33;;;;;20.12;100.00;100640.50;6358631;22;44644;-90
2022/05/20 16:49:23;;;;;;;;;4.33;4.33;;;;;19.95;100.00;100627.97;6359914;22;45161;-91
2022/05/20 16:51:53;;;;;;;;;3.00;3.00;;;;;19.97;100.00;100654.63;6301096;22;45237;-93
2022/05/20 16:54:21;;;;;;;;;3.00;2.00;;;;;19.94;100.00;100659.94;6325491;22;47317;-93
2022/05/20 17:05:03;;;;;;;;;2.67;2.67;;;;;20.13;100.00;100663.59;6400355;22;45816;-91
2022/05/20 17:09:59;;;;;;;;;2.00;2.00;;;;;20.18;100.00;100660.94;6384437;22;45285;-96
2022/05/20 17:20:51;;;;;;;;;3.33;3.33;;;;;19.80;100.00;100651.84;6380640;22;45941;-94
2022/05/20 17:25:58;;;;;;;;;5.00;4.00;;;;;19.86;100.00;100652.81;6394132;22;47601;-91
2022/05/20 18:01:51;;;;;;;;;4.00;4.00;;;;;19.03;100.00;100678.78;6415557;22;45181;-94
2022/05/20 18:04:17;;;;;;;;;4.00;2.00;;;;;18.96;100.00;100691.16;6372097;22;44735;-93
2022/05/20 18:06:43;;;;;;;;;3.00;3.00;;;;;18.97;100.00;100690.25;6372972;22;44866;-93
2022/05/20 18:14:20;;;;;;;;;3.00;3.00;;;;;18.86;100.00;100706.09;6384244;22;45068;-94
2022/05/20 18:17:03;;;;;;;;;4.00;3.00;;;;;18.79;100.00;100706.91;6372177;22;45368;-91
2022/05/20 18:19:30;;;;;;;;;8.00;6.33;;;;;18.78;100.00;100713.13;6366617;22;47153;-91
2022/05/20 18:22:01;;;;;;;;;2.00;2.00;;;;;18.72;100.00;100718.38;6389166;22;45319;-92
2022/05/20 18:24:36;;;;;;;;;3.00;2.67;;;;;18.67;100.00;100731.63;6338926;22;44720;-94
2022/05/20 18:27:06;;;;;;;;;4.33;3.00;;;;;18.63;100.00;100730.69;6391137;22;44734;-94
2022/05/20 18:32:11;;;;;;;;;4.50;3.50;;;;;18.58;100.00;100742.16;6390944;22;45377;-95
2022/05/20 18:40:06;;;;;;;;;4.00;3.00;;;;;18.54;100.00;100747.44;6392835;22;45097;-95
2022/05/20 18:42:32;;;;;;;;;3.00;3.00;;;;;18.53;100.00;100750.94;6393066;22;45064;-93
2022/05/20 18:44:59;;;;;;;;;3.67;3.67;;;;;18.48;100.00;100750.00;6362873;22;45323;-94
2022/05/20 18:47:25;;;;;;;;;7.67;5.00;;;;;18.48;100.00;100757.06;6389837;22;45445;-94
2022/05/20 18:49:53;;;;;;;;;5.33;3.67;;;;;18.47;100.00;100764.19;6385641;22;46089;-94
2022/05/20 18:52:20;;;;;;;;;4.00;3.00;;;;;18.44;100.00;100756.16;6367093;22;45689;-91
2022/05/20 18:54:46;;;;;;;;;7.67;4.33;;;;;18.37;100.00;100760.50;6370801;22;45475;-96
2022/05/20 18:57:18;;;;;;;;;6.00;6.00;;;;;18.39;100.00;100765.84;6370802;22;45234;-92
2022/05/20 18:59:45;;;;;;;;;3.67;3.00;;;;;18.34;100.00;100762.22;6370238;22;48143;-92
2022/05/20 19:02:12;;;;;;;;;7.00;4.33;;;;;18.33;100.00;100776.38;6369554;22;46239;-94
2022/05/20 19:04:38;;;;;;;;;6.67;4.00;;;;;18.31;100.00;100779.00;6368758;22;45379;-95
2022/05/20 19:07:04;;;;;;;;;3.33;2.00;;;;;18.27;100.00;100779.84;6365617;22;45391;-93
2022/05/20 19:09:30;;;;;;;;;5.00;5.00;;;;;18.24;100.00;100780.69;6368282;22;45390;-96
2022/05/20 19:11:56;;;;;;;;;5.00;5.00;;;;;18.22;100.00;100773.59;6365402;22;45415;-95
2022/05/20 19:14:21;;;;;;;;;6.67;5.67;;;;;18.18;100.00;100772.59;6369985;22;45357;-95
2022/05/20 19:16:47;;;;;;;;;4.67;4.67;;;;;18.18;100.00;100780.56;6380678;22;45729;-95
2022/05/20 19:19:14;;;;;;;;;5.00;4.00;;;;;18.12;100.00;100776.06;6361246;22;47195;-93
2022/05/20 19:21:39;;;;;;;;;4.00;4.00;;;;;18.15;100.00;100791.13;6365586;22;44732;-95
2022/05/20 19:24:06;;;;;;;;;3.33;3.33;;;;;18.07;100.00;100783.06;6363243;22;44866;-95
2022/05/20 19:26:32;;;;;;;;;6.00;4.00;;;;;18.08;100.00;100788.41;6363689;22;45687;-95
2022/05/20 19:29:00;;;;;;;;;3.00;3.00;;;;;17.94;100.00;100774.00;6374194;22;46818;-96
2022/05/20 19:31:26;;;;;;;;;6.33;3.00;;;;;18.01;100.00;100790.97;6329410;22;45776;-94
2022/05/20 19:33:52;;;;;;;;;5.33;5.00;;;;;17.89;100.00;100786.31;6319273;22;45337;-91
2022/05/20 19:36:18;;;;;;;;;4.00;4.00;;;;;17.94;100.00;100793.50;6300498;22;45304;-93
2022/05/20 19:38:44;;;;;;;;;6.00;5.00;;;;;17.84;100.00;100780.94;6301198;22;46198;-91
2022/05/20 19:41:11;;;;;;;;;4.00;4.00;;;;;17.81;100.00;100781.78;6330444;22;44839;-91
2022/05/20 19:43:36;;;;;;;;;5.33;5.00;;;;;17.82;100.00;100796.88;6331912;22;45606;-92
2022/05/20 19:46:04;;;;;;;;;3.67;3.00;;;;;17.82;100.00;100810.13;6303389;22;44867;-94
2022/05/20 19:51:08;;;;;;;;;8.67;4.00;;;;;17.74;100.00;100811.78;6392845;22;44778;-94
2022/05/20 19:53:33;;;;;;;;;3.67;3.67;;;;;17.67;100.00;100805.47;6368399;22;44731;-91
2022/05/20 19:55:59;;;;;;;;;5.00;4.00;;;;;17.63;100.00;100807.16;6392667;22;45998;-90
2022/05/20 20:08:47;;;;;;;;;4.67;4.67;;;;;17.48;100.00;100815.75;6386733;22;46740;-94
2022/05/20 20:11:13;;;;;;;;;3.00;3.00;;;;;17.46;100.00;100819.25;6390620;22;45223;-88
